Time;durP1;ratioP1;P1;durP2;ratioP2;P2;SDS_P1;SDS_P2;PMS_P1;PMS_P2;Temp;Humidity;BMP_temperature;BMP_pressure;BME280_temperature;BME280_humidity;BME280_pressure;Samples;Min_cycle;Max_cycle;Signal;HPM_P1;HPM_P2
2023/08/07 00:00:54;;;;;;;;;;;;;;;;;;5114977;28;19989;-72
2023/08/07 00:03:21;;;;;;;;;;;;;;;;;;5103980;28;19951;-72
2023/08/07 00:05:48;;;;;;;;;;;;;;;;;;5113568;28;19967;-73
2023/08/07 00:08:15;;;;;;;;;;;;;;;;;;5113256;28;19931;-72
2023/08/07 00:10:42;;;;;;;;;;;;;;;;;;5114669;28;20306;-72
2023/08/07 00:13:09;;;;;;;;;;;;;;;;;;5107079;28;20366;-73
2023/08/07 00:15:36;;;;;;;;;;;;;;;;;;5109183;28;19923;-72
2023/08/07 00:18:03;;;;;;;;;;;;;;;;;;5112225;28;19924;-74
2023/08/07 00:20:30;;;;;;;;;;;;;;;;;;5114397;28;19923;-72
2023/08/07 00:22:57;;;;;;;;;;;;;;;;;;5113092;28;19928;-72
2023/08/07 00:25:24;;;;;;;;;;;;;;;;;;5111764;28;20535;-72
2023/08/07 00:27:51;;;;;;;;;;;;;;;;;;5107617;28;20378;-71
2023/08/07 00:30:18;;;;;;;;;;;;;;;;;;5108542;28;19928;-72
2023/08/07 00:32:45;;;;;;;;;;;;;;;;;;5107643;28;19946;-73
2023/08/07 00:35:12;;;;;;;;;;;;;;;;;;5110301;28;19923;-72
2023/08/07 00:37:39;;;;;;;;;;;;;;;;;;5114415;28;19923;-72
2023/08/07 00:40:06;;;;;;;;;;;;;;;;;;5113162;28;19924;-72
2023/08/07 00:42:33;;;;;;;;;;;;;;;;;;5113692;28;19986;-72
2023/08/07 00:45:01;;;;;;;;;;;;;;;;;;5111412;28;19924;-72
2023/08/07 00:47:28;;;;;;;;;;;;;;;;;;5112249;28;19930;-72
2023/08/07 00:49:55;;;;;;;;;;;;;;;;;;5110604;28;20344;-72
2023/08/07 00:52:22;;;;;;;;;;;;;;;;;;5106947;28;20328;-72
2023/08/07 00:54:49;;;;;;;;;;;;;;;;;;5113052;28;19923;-73
2023/08/07 00:57:16;;;;;;;;;;;;;;;;;;5105596;28;19924;-73
2023/08/07 00:59:43;;;;;;;;;;;;;;;;;;5105996;28;19927;-72
2023/08/07 01:02:10;;;;;;;;;;;;;;;;;;5107554;28;19927;-72
2023/08/07 01:04:37;;;;;;;;;;;;;;;;;;5112759;28;19985;-72
2023/08/07 01:07:04;;;;;;;;;;;;;;;;;;5111530;28;19977;-71
2023/08/07 01:09:31;;;;;;;;;;;;;;;;;;5109113;28;19927;-72
2023/08/07 01:11:58;;;;;;;;;;;;;;;;;;5111065;28;19953;-72
2023/08/07 01:14:25;;;;;;;;;;;;;;;;;;5106081;28;20275;-72
2023/08/07 01:16:52;;;;;;;;;;;;;;;;;;5112374;28;19980;-72
2023/08/07 01:19:19;;;;;;;;;;;;;;;;;;5107713;28;20268;-72
2023/08/07 01:21:46;;;;;;;;;;;;;;;;;;5111827;28;19928;-72
2023/08/07 01:24:13;;;;;;;;;;;;;;;;;;5110449;28;20444;-72
2023/08/07 01:26:40;;;;;;;;;;;;;;;;;;5111437;28;19923;-72
2023/08/07 01:29:07;;;;;;;;;;;;;;;;;;5109091;28;19978;-73
2023/08/07 01:31:34;;;;;;;;;;;;;;;;;;5110263;28;19924;-72
2023/08/07 01:34:01;;;;;;;;;;;;;;;;;;5110677;28;19924;-72
2023/08/07 01:36:28;;;;;;;;;;;;;;;;;;5111265;28;20015;-72
2023/08/07 01:38:55;;;;;;;;;;;;;;;;;;5111256;28;19928;-71
2023/08/07 01:41:22;;;;;;;;;;;;;;;;;;5110305;28;19941;-71
2023/08/07 01:43:49;;;;;;;;;;;;;;;;;;5110299;28;19987;-72
2023/08/07 01:46:16;;;;;;;;;;;;;;;;;;5097009;28;19977;-72
2023/08/07 01:48:43;;;;;;;;;;;;;;;;;;5107372;28;19928;-71
2023/08/07 01:51:10;;;;;;;;;;;;;;;;;;5112622;28;19924;-72
2023/08/07 01:53:37;;;;;;;;;;;;;;;;;;5112822;28;19984;-71
2023/08/07 01:56:04;;;;;;;;;;;;;;;;;;5101009;28;19923;-71
2023/08/07 01:58:31;;;;;;;;;;;;;;;;;;5108517;28;19927;-71
2023/08/07 02:00:58;;;;;;;;;;;;;;;;;;5111674;28;19969;-71
2023/08/07 02:03:25;;;;;;;;;;;;;;;;;;5110412;28;19924;-71
2023/08/07 02:05:52;;;;;;;;;;;;;;;;;;5110771;28;19923;-71
2023/08/07 02:08:19;;;;;;;;;;;;;;;;;;5112709;28;19984;-71
2023/08/07 02:10:46;;;;;;;;;;;;;;;;;;5112828;28;19975;-71
2023/08/07 02:13:13;;;;;;;;;;;;;;;;;;5112191;28;19935;-72
2023/08/07 02:15:40;;;;;;;;;;;;;;;;;;5109791;28;19924;-72
2023/08/07 02:18:07;;;;;;;;;;;;;;;;;;5110778;28;20305;-71
2023/08/07 02:20:34;;;;;;;;;;;;;;;;;;5110440;28;19928;-71
2023/08/07 02:23:01;;;;;;;;;;;;;;;;;;5110196;28;19967;-71
2023/08/07 02:25:28;;;;;;;;;;;;;;;;;;5109966;28;19936;-72
2023/08/07 02:27:55;;;;;;;;;;;;;;;;;;5101664;28;19956;-71
2023/08/07 02:30:22;;;;;;;;;;;;;;;;;;5097833;28;19984;-72
2023/08/07 02:32:49;;;;;;;;;;;;;;;;;;5109807;28;20399;-71
2023/08/07 02:35:16;;;;;;;;;;;;;;;;;;5107685;28;19924;-71
2023/08/07 02:37:43;;;;;;;;;;;;;;;;;;5111814;28;20364;-71
2023/08/07 02:40:10;;;;;;;;;;;;;;;;;;5106515;28;19950;-71
2023/08/07 02:42:37;;;;;;;;;;;;;;;;;;5112211;28;19931;-71
2023/08/07 02:45:04;;;;;;;;;;;;;;;;;;5110716;28;20368;-71
2023/08/07 02:47:31;;;;;;;;;;;;;;;;;;5098284;28;19924;-71
2023/08/07 02:49:59;;;;;;;;;;;;;;;;;;5107886;28;19924;-70
2023/08/07 02:52:26;;;;;;;;;;;;;;;;;;5110727;28;19924;-71
2023/08/07 02:54:53;;;;;;;;;;;;;;;;;;5110804;28;19923;-71
2023/08/07 02:57:20;;;;;;;;;;;;;;;;;;5110592;28;19949;-71
2023/08/07 02:59:47;;;;;;;;;;;;;;;;;;5107987;28;19923;-71
2023/08/07 03:02:14;;;;;;;;;;;;;;;;;;5110165;28;20512;-72
2023/08/07 03:04:41;;;;;;;;;;;;;;;;;;5107200;28;19949;-71
2023/08/07 03:07:08;;;;;;;;;;;;;;;;;;5108791;28;19931;-72
2023/08/07 03:09:35;;;;;;;;;;;;;;;;;;5110093;28;19953;-72
2023/08/07 03:12:04;;;;;;;;;;;;;;;;;;5109138;28;19959;-72
2023/08/07 03:14:31;;;;;;;;;;;;;;;;;;5110865;28;20367;-71
2023/08/07 03:16:58;;;;;;;;;;;;;;;;;;5101220;28;19924;-72
2023/08/07 03:19:25;;;;;;;;;;;;;;;;;;5111650;28;19992;-71
2023/08/07 03:21:52;;;;;;;;;;;;;;;;;;5113046;28;19923;-72
2023/08/07 03:24:19;;;;;;;;;;;;;;;;;;5113503;28;19977;-72
2023/08/07 03:26:47;;;;;;;;;;;;;;;;;;5114182;28;19984;-71
2023/08/07 03:29:14;;;;;;;;;;;;;;;;;;5108272;28;20026;-71
2023/08/07 03:31:41;;;;;;;;;;;;;;;;;;5110382;28;19924;-71
2023/08/07 03:34:08;;;;;;;;;;;;;;;;;;5112518;28;20350;-72
2023/08/07 03:36:35;;;;;;;;;;;;;;;;;;5109515;28;19927;-72
2023/08/07 03:39:02;;;;;;;;;;;;;;;;;;5108661;28;20012;-71
2023/08/07 03:41:29;;;;;;;;;;;;;;;;;;5111015;28;19984;-71
2023/08/07 03:43:57;;;;;;;;;;;;;;;;;;5109223;28;19928;-72
2023/08/07 03:46:24;;;;;;;;;;;;;;;;;;5114095;28;19924;-71
2023/08/07 03:48:51;;;;;;;;;;;;;;;;;;5112137;28;19928;-71
2023/08/07 03:51:18;;;;;;;;;;;;;;;;;;5110359;28;19924;-72
2023/08/07 03:53:45;;;;;;;;;;;;;;;;;;5103289;28;19951;-73
2023/08/07 03:56:12;;;;;;;;;;;;;;;;;;5112963;28;19931;-71
2023/08/07 03:58:39;;;;;;;;;;;;;;;;;;5112897;28;19927;-70
2023/08/07 04:01:06;;;;;;;;;;;;;;;;;;5104614;28;20275;-73
2023/08/07 04:03:33;;;;;;;;;;;;;;;;;;5111724;28;19966;-73
2023/08/07 04:06:01;;;;;;;;;;;;;;;;;;5112620;28;19924;-72
2023/08/07 04:08:28;;;;;;;;;;;;;;;;;;5111477;28;20011;-70
2023/08/07 04:10:55;;;;;;;;;;;;;;;;;;5109915;28;20458;-70
2023/08/07 04:13:22;;;;;;;;;;;;;;;;;;5103498;28;19923;-71
2023/08/07 04:15:49;;;;;;;;;;;;;;;;;;5112477;28;19924;-71
2023/08/07 04:18:16;;;;;;;;;;;;;;;;;;5114009;28;19958;-70
2023/08/07 04:20:43;;;;;;;;;;;;;;;;;;5111162;28;19969;-72
2023/08/07 04:23:10;;;;;;;;;;;;;;;;;;5107093;28;19970;-70
2023/08/07 04:25:37;;;;;;;;;;;;;;;;;;5108055;28;20007;-71
2023/08/07 04:28:04;;;;;;;;;;;;;;;;;;5105464;28;20400;-71
2023/08/07 04:30:32;;;;;;;;;;;;;;;;;;5111537;28;20011;-71
2023/08/07 04:32:59;;;;;;;;;;;;;;;;;;5109671;28;19928;-71
2023/08/07 04:35:26;;;;;;;;;;;;;;;;;;5109736;28;19928;-71
2023/08/07 04:37:53;;;;;;;;;;;;;;;;;;5111739;28;19924;-71
2023/08/07 04:40:20;;;;;;;;;;;;;;;;;;5112463;28;19969;-71
2023/08/07 04:42:47;;;;;;;;;;;;;;;;;;5111369;28;19928;-71
2023/08/07 04:45:14;;;;;;;;;;;;;;;;;;5112108;28;19932;-71
2023/08/07 04:47:41;;;;;;;;;;;;;;;;;;5097468;28;19981;-71
2023/08/07 04:50:08;;;;;;;;;;;;;;;;;;5105397;28;19977;-71
2023/08/07 04:52:35;;;;;;;;;;;;;;;;;;5113408;28;20341;-71
2023/08/07 04:55:02;;;;;;;;;;;;;;;;;;5111891;28;19934;-72
2023/08/07 04:57:29;;;;;;;;;;;;;;;;;;5107934;28;20302;-71
2023/08/07 04:59:56;;;;;;;;;;;;;;;;;;5111342;28;19927;-71
2023/08/07 05:02:23;;;;;;;;;;;;;;;;;;5112688;28;20370;-71
2023/08/07 05:04:50;;;;;;;;;;;;;;;;;;5110903;28;19969;-71
2023/08/07 05:07:17;;;;;;;;;;;;;;;;;;5109611;28;19946;-70
2023/08/07 05:09:44;;;;;;;;;;;;;;;;;;5108696;28;19971;-72
2023/08/07 05:12:11;;;;;;;;;;;;;;;;;;5111091;28;19924;-71
2023/08/07 05:14:38;;;;;;;;;;;;;;;;;;5113104;28;19966;-71
2023/08/07 05:17:05;;;;;;;;;;;;;;;;;;5114160;28;19924;-71
2023/08/07 05:19:32;;;;;;;;;;;;;;;;;;5110669;28;19930;-71
2023/08/07 05:21:59;;;;;;;;;;;;;;;;;;5111679;28;19971;-71
2023/08/07 05:24:26;;;;;;;;;;;;;;;;;;5111187;28;20374;-71
2023/08/07 05:26:53;;;;;;;;;;;;;;;;;;5110828;28;20002;-71
2023/08/07 05:29:20;;;;;;;;;;;;;;;;;;5110366;28;19923;-71
2023/08/07 05:31:47;;;;;;;;;;;;;;;;;;5110499;28;19976;-70
2023/08/07 05:34:14;;;;;;;;;;;;;;;;;;5112163;28;19977;-71
2023/08/07 05:36:41;;;;;;;;;;;;;;;;;;5112102;28;19985;-71
2023/08/07 05:39:08;;;;;;;;;;;;;;;;;;5109107;28;19924;-71
2023/08/07 05:41:35;;;;;;;;;;;;;;;;;;5109688;28;19924;-72
2023/08/07 05:44:02;;;;;;;;;;;;;;;;;;5109857;28;19924;-72
2023/08/07 05:46:29;;;;;;;;;;;;;;;;;;5111772;28;19923;-71
2023/08/07 05:48:56;;;;;;;;;;;;;;;;;;5110189;28;19986;-71
2023/08/07 05:51:23;;;;;;;;;;;;;;;;;;5107010;28;19979;-71
2023/08/07 05:53:50;;;;;;;;;;;;;;;;;;5112184;28;19927;-71
2023/08/07 05:56:17;;;;;;;;;;;;;;;;;;5105799;28;20012;-71
2023/08/07 05:58:45;;;;;;;;;;;;;;;;;;5108101;28;19924;-72
2023/08/07 06:01:12;;;;;;;;;;;;;;;;;;5108920;28;19932;-72
2023/08/07 06:03:39;;;;;;;;;;;;;;;;;;5102125;28;19930;-71
2023/08/07 06:06:06;;;;;;;;;;;;;;;;;;5101555;28;19927;-71
2023/08/07 06:08:34;;;;;;;;;;;;;;;;;;5106148;28;19962;-72
2023/08/07 06:11:03;;;;;;;;;;;;;;;;;;5109716;28;20430;-71
2023/08/07 06:13:30;;;;;;;;;;;;;;;;;;5111425;28;19924;-71
2023/08/07 06:15:57;;;;;;;;;;;;;;;;;;5109266;28;19932;-71
2023/08/07 06:18:24;;;;;;;;;;;;;;;;;;5104206;28;19979;-71
2023/08/07 06:20:51;;;;;;;;;;;;;;;;;;5110920;28;19924;-74
2023/08/07 06:23:18;;;;;;;;;;;;;;;;;;5110599;28;19928;-70
2023/08/07 06:25:45;;;;;;;;;;;;;;;;;;5108094;28;20390;-70
2023/08/07 06:28:12;;;;;;;;;;;;;;;;;;5106857;28;19927;-70
2023/08/07 06:30:39;;;;;;;;;;;;;;;;;;5108652;28;19924;-70
2023/08/07 06:33:06;;;;;;;;;;;;;;;;;;5107155;28;19981;-69
2023/08/07 06:35:33;;;;;;;;;;;;;;;;;;5108693;28;19931;-70
2023/08/07 06:38:00;;;;;;;;;;;;;;;;;;5108430;28;21254;-69
2023/08/07 06:40:27;;;;;;;;;;;;;;;;;;5104350;28;19970;-70
2023/08/07 06:42:54;;;;;;;;;;;;;;;;;;5107139;28;19931;-70
2023/08/07 06:45:21;;;;;;;;;;;;;;;;;;5110609;28;20435;-70
2023/08/07 06:47:48;;;;;;;;;;;;;;;;;;5107077;28;19924;-70
2023/08/07 06:50:15;;;;;;;;;;;;;;;;;;5111782;28;19924;-69
2023/08/07 06:52:42;;;;;;;;;;;;;;;;;;5115728;28;19924;-69
2023/08/07 06:55:09;;;;;;;;;;;;;;;;;;5114164;28;19931;-70
2023/08/07 06:57:36;;;;;;;;;;;;;;;;;;5111104;28;19924;-70
2023/08/07 07:00:03;;;;;;;;;;;;;;;;;;5106921;28;19927;-70
2023/08/07 07:02:32;;;;;;;;;;;;;;;;;;5107097;28;19928;-69
2023/08/07 07:04:59;;;;;;;;;;;;;;;;;;5103134;28;20014;-72
2023/08/07 07:07:26;;;;;;;;;;;;;;;;;;5114098;28;19963;-70
2023/08/07 07:09:52;;;;;;;;;;;;;;;;;;5111330;28;20329;-71
2023/08/07 07:12:19;;;;;;;;;;;;;;;;;;5113636;28;19924;-71
2023/08/07 07:14:46;;;;;;;;;;;;;;;;;;5112063;28;20402;-72
2023/08/07 07:17:14;;;;;;;;;;;;;;;;;;5108375;28;19977;-72
2023/08/07 07:19:40;;;;;;;;;;;;;;;;;;5112840;28;20374;-72
2023/08/07 07:22:07;;;;;;;;;;;;;;;;;;5109188;28;19993;-71
2023/08/07 07:24:35;;;;;;;;;;;;;;;;;;5102818;28;19959;-71
2023/08/07 07:27:02;;;;;;;;;;;;;;;;;;5107151;28;19962;-71
2023/08/07 07:29:29;;;;;;;;;;;;;;;;;;5103129;28;19939;-71
2023/08/07 07:31:57;;;;;;;;;;;;;;;;;;5106175;28;20605;-71
2023/08/07 07:34:24;;;;;;;;;;;;;;;;;;5110964;28;19923;-71
2023/08/07 07:36:53;;;;;;;;;;;;;;;;;;5104562;28;20662;-72
2023/08/07 07:39:20;;;;;;;;;;;;;;;;;;5102736;28;20389;-70
2023/08/07 07:41:47;;;;;;;;;;;;;;;;;;5110909;28;20465;-71
2023/08/07 07:44:14;;;;;;;;;;;;;;;;;;5112898;28;19950;-72
2023/08/07 07:46:42;;;;;;;;;;;;;;;;;;5108271;28;19932;-71
2023/08/07 07:49:09;;;;;;;;;;;;;;;;;;5104791;28;20514;-70
2023/08/07 07:51:37;;;;;;;;;;;;;;;;;;5107143;28;19924;-72
2023/08/07 07:54:05;;;;;;;;;;;;;;;;;;5105244;28;19938;-73
2023/08/07 07:56:32;;;;;;;;;;;;;;;;;;5107217;28;19946;-72
2023/08/07 07:58:59;;;;;;;;;;;;;;;;;;5109635;28;19977;-72
2023/08/07 08:01:26;;;;;;;;;;;;;;;;;;5103868;28;19924;-72
2023/08/07 08:03:53;;;;;;;;;;;;;;;;;;5108116;28;19977;-72
2023/08/07 08:06:20;;;;;;;;;;;;;;;;;;5106139;28;19984;-72
2023/08/07 08:08:47;;;;;;;;;;;;;;;;;;5107925;28;20455;-72
2023/08/07 08:11:14;;;;;;;;;;;;;;;;;;5107017;28;19977;-72
2023/08/07 08:13:41;;;;;;;;;;;;;;;;;;5105468;28;19999;-71
2023/08/07 08:16:08;;;;;;;;;;;;;;;;;;5106272;28;20417;-73
2023/08/07 08:18:35;;;;;;;;;;;;;;;;;;5100158;28;19924;-72
2023/08/07 08:21:02;;;;;;;;;;;;;;;;;;5099587;28;20380;-72
2023/08/07 08:23:29;;;;;;;;;;;;;;;;;;5109894;28;19931;-72
2023/08/07 08:25:56;;;;;;;;;;;;;;;;;;5110103;28;20416;-71
2023/08/07 08:28:23;;;;;;;;;;;;;;;;;;5110252;28;19969;-72
2023/08/07 08:30:50;;;;;;;;;;;;;;;;;;5106784;28;20024;-72
2023/08/07 08:33:17;;;;;;;;;;;;;;;;;;5112993;28;19960;-70
2023/08/07 08:35:44;;;;;;;;;;;;;;;;;;5106044;28;20371;-71
2023/08/07 08:38:11;;;;;;;;;;;;;;;;;;5099028;28;19956;-71
2023/08/07 08:40:38;;;;;;;;;;;;;;;;;;5105550;28;19945;-70
2023/08/07 08:43:05;;;;;;;;;;;;;;;;;;5100540;28;19924;-70
2023/08/07 08:45:33;;;;;;;;;;;;;;;;;;5107207;28;19976;-70
2023/08/07 08:48:00;;;;;;;;;;;;;;;;;;5104979;28;19932;-70
2023/08/07 08:50:27;;;;;;;;;;;;;;;;;;5101632;28;19940;-70
2023/08/07 08:52:54;;;;;;;;;;;;;;;;;;5102744;28;19931;-71
2023/08/07 08:55:21;;;;;;;;;;;;;;;;;;5094568;28;20272;-68
2023/08/07 08:57:49;;;;;;;;;;;;;;;;;;5094622;28;19970;-70
2023/08/07 09:00:20;;;;;;;;;;;;;;;;;;5107754;28;20430;-71
2023/08/07 09:02:47;;;;;;;;;;;;;;;;;;5107570;28;19927;-71
2023/08/07 09:05:14;;;;;;;;;;;;;;;;;;5112253;28;20439;-70
2023/08/07 09:07:41;;;;;;;;;;;;;;;;;;5105921;28;19992;-71
2023/08/07 09:10:08;;;;;;;;;;;;;;;;;;5110481;28;20318;-71
2023/08/07 09:12:35;;;;;;;;;;;;;;;;;;5105945;28;21344;-71
2023/08/07 09:15:02;;;;;;;;;;;;;;;;;;5098460;28;19924;-70
2023/08/07 09:17:29;;;;;;;;;;;;;;;;;;5108379;28;19950;-69
2023/08/07 09:19:56;;;;;;;;;;;;;;;;;;5110519;28;19928;-70
2023/08/07 09:22:23;;;;;;;;;;;;;;;;;;5099934;28;19924;-72
2023/08/07 09:24:50;;;;;;;;;;;;;;;;;;5104911;28;19985;-72
2023/08/07 09:27:17;;;;;;;;;;;;;;;;;;5111082;28;19977;-71
2023/08/07 09:29:44;;;;;;;;;;;;;;;;;;5109441;28;19924;-71
2023/08/07 09:32:11;;;;;;;;;;;;;;;;;;5111317;28;20455;-70
2023/08/07 09:34:38;;;;;;;;;;;;;;;;;;5109023;28;20290;-71
2023/08/07 09:37:06;;;;;;;;;;;;;;;;;;5111479;27;19923;-70
2023/08/07 09:39:33;;;;;;;;;;;;;;;;;;5111508;28;19924;-71
2023/08/07 09:42:00;;;;;;;;;;;;;;;;;;5110972;28;20012;-71
2023/08/07 09:44:27;;;;;;;;;;;;;;;;;;5106055;28;19930;-70
2023/08/07 09:46:54;;;;;;;;;;;;;;;;;;5107631;28;19924;-70
2023/08/07 09:49:21;;;;;;;;;;;;;;;;;;5106811;28;19931;-69
2023/08/07 09:51:50;;;;;;;;;;;;;;;;;;5106781;28;19946;-69
2023/08/07 09:54:17;;;;;;;;;;;;;;;;;;5099463;28;19924;-69
2023/08/07 09:56:46;;;;;;;;;;;;;;;;;;5101436;28;19935;-69
2023/08/07 09:59:13;;;;;;;;;;;;;;;;;;5100930;28;19975;-69
2023/08/07 10:01:40;;;;;;;;;;;;;;;;;;5104336;28;19932;-69
2023/08/07 10:04:07;;;;;;;;;;;;;;;;;;5106976;28;19928;-70
2023/08/07 10:06:34;;;;;;;;;;;;;;;;;;5101371;28;20340;-68
2023/08/07 10:09:01;;;;;;;;;;;;;;;;;;5092350;27;19993;-73
2023/08/07 10:11:28;;;;;;;;;;;;;;;;;;5089870;28;19939;-70
2023/08/07 10:13:57;;;;;;;;;;;;;;;;;;5096909;28;19923;-70
2023/08/07 10:16:24;;;;;;;;;;;;;;;;;;5096415;28;19935;-70
2023/08/07 10:18:51;;;;;;;;;;;;;;;;;;5097404;28;21162;-70
2023/08/07 10:21:18;;;;;;;;;;;;;;;;;;5095172;28;19932;-71
2023/08/07 10:23:45;;;;;;;;;;;;;;;;;;5100650;28;19924;-70
2023/08/07 10:26:12;;;;;;;;;;;;;;;;;;5108026;28;19988;-70
2023/08/07 10:28:39;;;;;;;;;;;;;;;;;;5115769;27;20178;-70
2023/08/07 10:31:06;;;;;;;;;;;;;;;;;;5108579;28;19935;-70
2023/08/07 10:33:33;;;;;;;;;;;;;;;;;;5114213;28;19928;-70
2023/08/07 10:36:00;;;;;;;;;;;;;;;;;;5110170;28;19924;-70
2023/08/07 10:38:27;;;;;;;;;;;;;;;;;;5108241;28;20271;-70
2023/08/07 10:40:54;;;;;;;;;;;;;;;;;;5109600;28;19924;-70
2023/08/07 10:43:21;;;;;;;;;;;;;;;;;;5117538;28;20395;-70
2023/08/07 10:45:48;;;;;;;;;;;;;;;;;;5107427;28;19927;-70
2023/08/07 10:48:15;;;;;;;;;;;;;;;;;;5107504;28;19943;-71
2023/08/07 10:50:42;;;;;;;;;;;;;;;;;;5112853;28;19924;-69
2023/08/07 10:53:09;;;;;;;;;;;;;;;;;;5102078;28;19986;-72
2023/08/07 10:55:36;;;;;;;;;;;;;;;;;;5106157;28;19928;-72
2023/08/07 10:58:03;;;;;;;;;;;;;;;;;;5102741;28;19928;-72
2023/08/07 11:00:30;;;;;;;;;;;;;;;;;;5105586;27;20031;-72
2023/08/07 11:02:57;;;;;;;;;;;;;;;;;;5103346;28;19928;-70
2023/08/07 11:05:25;;;;;;;;;;;;;;;;;;5104324;28;19931;-73
2023/08/07 11:07:52;;;;;;;;;;;;;;;;;;5113304;27;19928;-73
2023/08/07 11:10:19;;;;;;;;;;;;;;;;;;5111843;28;19927;-72
2023/08/07 11:12:46;;;;;;;;;;;;;;;;;;5108354;28;19981;-73
2023/08/07 11:15:13;;;;;;;;;;;;;;;;;;5113505;28;19924;-73
2023/08/07 11:17:41;;;;;;;;;;;;;;;;;;5109861;28;19927;-74
2023/08/07 11:20:08;;;;;;;;;;;;;;;;;;5112355;28;20020;-73
2023/08/07 11:22:35;;;;;;;;;;;;;;;;;;5108018;28;19955;-72
2023/08/07 11:25:02;;;;;;;;;;;;;;;;;;5112766;28;19928;-73
2023/08/07 11:27:29;;;;;;;;;;;;;;;;;;5113362;27;19939;-72
2023/08/07 11:29:56;;;;;;;;;;;;;;;;;;5115131;28;20020;-73
2023/08/07 11:32:23;;;;;;;;;;;;;;;;;;5110979;27;20276;-73
2023/08/07 11:34:50;;;;;;;;;;;;;;;;;;5104547;28;19927;-74
2023/08/07 11:37:17;;;;;;;;;;;;;;;;;;5105623;28;19923;-73
2023/08/07 11:39:44;;;;;;;;;;;;;;;;;;5106357;28;19928;-72
2023/08/07 11:42:11;;;;;;;;;;;;;;;;;;5111471;28;19924;-72
2023/08/07 11:44:38;;;;;;;;;;;;;;;;;;5111167;28;19975;-73
2023/08/07 11:47:05;;;;;;;;;;;;;;;;;;5108699;28;19975;-73
2023/08/07 11:49:32;;;;;;;;;;;;;;;;;;5103954;28;19932;-72
2023/08/07 11:51:59;;;;;;;;;;;;;;;;;;5104801;28;19931;-72
2023/08/07 11:54:27;;;;;;;;;;;;;;;;;;5107593;28;20326;-72
2023/08/07 11:56:54;;;;;;;;;;;;;;;;;;5103644;28;20047;-73
2023/08/07 11:59:21;;;;;;;;;;;;;;;;;;5102101;28;20039;-72
2023/08/07 12:01:48;;;;;;;;;;;;;;;;;;5104244;28;19924;-74
2023/08/07 12:04:15;;;;;;;;;;;;;;;;;;5094690;28;19924;-71
2023/08/07 12:06:43;;;;;;;;;;;;;;;;;;5102957;28;19977;-70
2023/08/07 12:09:12;;;;;;;;;;;;;;;;;;5100045;28;19932;-70
2023/08/07 12:11:39;;;;;;;;;;;;;;;;;;5100335;28;20427;-70
2023/08/07 12:14:07;;;;;;;;;;;;;;;;;;5103534;27;19949;-69
2023/08/07 12:16:34;;;;;;;;;;;;;;;;;;5106977;28;19978;-70
2023/08/07 12:19:01;;;;;;;;;;;;;;;;;;5103575;28;19928;-69
2023/08/07 12:21:28;;;;;;;;;;;;;;;;;;5100707;28;20016;-70
2023/08/07 12:23:55;;;;;;;;;;;;;;;;;;5105568;28;19927;-69
2023/08/07 12:26:22;;;;;;;;;;;;;;;;;;5103280;28;19932;-69
2023/08/07 12:28:49;;;;;;;;;;;;;;;;;;5105358;28;20005;-70
2023/08/07 12:31:17;;;;;;;;;;;;;;;;;;5105931;28;20352;-71
2023/08/07 12:33:44;;;;;;;;;;;;;;;;;;5107073;28;19952;-70
2023/08/07 12:36:13;;;;;;;;;;;;;;;;;;5108435;28;19981;-70
2023/08/07 12:38:40;;;;;;;;;;;;;;;;;;5109616;28;19969;-69
2023/08/07 12:41:07;;;;;;;;;;;;;;;;;;5102826;28;19924;-68
2023/08/07 12:43:34;;;;;;;;;;;;;;;;;;5106796;28;20386;-68
2023/08/07 12:46:01;;;;;;;;;;;;;;;;;;5105692;28;19942;-69
2023/08/07 12:48:28;;;;;;;;;;;;;;;;;;5104794;28;19931;-69
2023/08/07 12:50:55;;;;;;;;;;;;;;;;;;5103056;28;19928;-70
2023/08/07 12:53:22;;;;;;;;;;;;;;;;;;5104564;28;19977;-69
2023/08/07 12:55:49;;;;;;;;;;;;;;;;;;5106711;28;19931;-69
2023/08/07 12:58:18;;;;;;;;;;;;;;;;;;5103938;28;19946;-69
2023/08/07 13:00:45;;;;;;;;;;;;;;;;;;5090966;28;19923;-70
2023/08/07 13:03:12;;;;;;;;;;;;;;;;;;5098612;28;20115;-72
2023/08/07 13:05:41;;;;;;;;;;;;;;;;;;5100731;27;20452;-70
2023/08/07 13:08:08;;;;;;;;;;;;;;;;;;5101341;28;19924;-70
2023/08/07 13:10:35;;;;;;;;;;;;;;;;;;5106290;28;19924;-71
2023/08/07 13:13:04;;;;;;;;;;;;;;;;;;5103217;28;20378;-74
2023/08/07 13:15:31;;;;;;;;;;;;;;;;;;5097766;28;19930;-71
2023/08/07 13:17:59;;;;;;;;;;;;;;;;;;5105638;28;20793;-71
2023/08/07 13:20:27;;;;;;;;;;;;;;;;;;5107138;28;19930;-71
2023/08/07 13:22:54;;;;;;;;;;;;;;;;;;5107581;28;19923;-71
2023/08/07 13:25:21;;;;;;;;;;;;;;;;;;5102896;28;19932;-70
2023/08/07 13:27:48;;;;;;;;;;;;;;;;;;5090518;28;19931;-70
2023/08/07 13:30:15;;;;;;;;;;;;;;;;;;5101475;27;19939;-72
2023/08/07 13:32:42;;;;;;;;;;;;;;;;;;5108467;28;20006;-73
2023/08/07 13:35:09;;;;;;;;;;;;;;;;;;5111452;28;19931;-71
2023/08/07 13:37:37;;;;;;;;;;;;;;;;;;5106324;28;20083;-73
2023/08/07 13:40:04;;;;;;;;;;;;;;;;;;5093173;28;19924;-70
2023/08/07 13:42:32;;;;;;;;;;;;;;;;;;5103415;28;19944;-69
2023/08/07 13:44:59;;;;;;;;;;;;;;;;;;5094640;28;19935;-72
2023/08/07 13:47:26;;;;;;;;;;;;;;;;;;5101991;28;19923;-70
2023/08/07 13:49:54;;;;;;;;;;;;;;;;;;5105519;28;20379;-71
2023/08/07 13:52:21;;;;;;;;;;;;;;;;;;5100874;28;20518;-70
2023/08/07 13:54:48;;;;;;;;;;;;;;;;;;5109433;28;19969;-71
2023/08/07 13:57:15;;;;;;;;;;;;;;;;;;5103582;28;19924;-72
2023/08/07 13:59:42;;;;;;;;;;;;;;;;;;5091527;28;19924;-70
2023/08/07 14:02:09;;;;;;;;;;;;;;;;;;5102742;28;19931;-67
2023/08/07 14:04:36;;;;;;;;;;;;;;;;;;5111337;28;19923;-66
2023/08/07 14:07:03;;;;;;;;;;;;;;;;;;5110310;28;19924;-67
2023/08/07 14:09:30;;;;;;;;;;;;;;;;;;5111477;28;20394;-68
2023/08/07 14:11:57;;;;;;;;;;;;;;;;;;5108120;28;19924;-65
2023/08/07 14:14:24;;;;;;;;;;;;;;;;;;5108426;28;20345;-66
2023/08/07 14:16:54;;;;;;;;;;;;;;;;;;5109120;28;19927;-66
2023/08/07 14:19:21;;;;;;;;;;;;;;;;;;5104015;28;20156;-69
2023/08/07 14:21:48;;;;;;;;;;;;;;;;;;5105318;28;19924;-69
2023/08/07 14:24:16;;;;;;;;;;;;;;;;;;5101398;28;20504;-68
2023/08/07 14:26:43;;;;;;;;;;;;;;;;;;5101677;28;20407;-67
2023/08/07 14:29:10;;;;;;;;;;;;;;;;;;5099991;28;19934;-67
2023/08/07 14:31:37;;;;;;;;;;;;;;;;;;5109427;28;19930;-66
2023/08/07 14:34:04;;;;;;;;;;;;;;;;;;5109261;28;19984;-67
2023/08/07 14:36:31;;;;;;;;;;;;;;;;;;5107023;28;19928;-68
2023/08/07 14:38:58;;;;;;;;;;;;;;;;;;5105777;28;19928;-68
2023/08/07 14:41:25;;;;;;;;;;;;;;;;;;5104530;28;20570;-68
2023/08/07 14:43:52;;;;;;;;;;;;;;;;;;5102266;28;19923;-69
2023/08/07 14:46:19;;;;;;;;;;;;;;;;;;5103767;28;19927;-68
2023/08/07 14:48:46;;;;;;;;;;;;;;;;;;5103768;28;19923;-69
2023/08/07 14:51:13;;;;;;;;;;;;;;;;;;5105366;28;20340;-68
2023/08/07 14:53:40;;;;;;;;;;;;;;;;;;5099577;28;20587;-69
2023/08/07 14:56:08;;;;;;;;;;;;;;;;;;5107391;28;19931;-69
2023/08/07 14:58:35;;;;;;;;;;;;;;;;;;5098152;28;20050;-67
2023/08/07 15:01:04;;;;;;;;;;;;;;;;;;5109625;28;19923;-68
2023/08/07 15:03:31;;;;;;;;;;;;;;;;;;5109966;28;19931;-68
2023/08/07 15:05:58;;;;;;;;;;;;;;;;;;5107273;28;19923;-67
2023/08/07 15:08:25;;;;;;;;;;;;;;;;;;5110210;28;19924;-68
2023/08/07 15:10:52;;;;;;;;;;;;;;;;;;5109117;28;19924;-68
2023/08/07 15:13:19;;;;;;;;;;;;;;;;;;5101634;28;19932;-66
2023/08/07 15:15:46;;;;;;;;;;;;;;;;;;5108390;28;20332;-68
2023/08/07 15:18:13;;;;;;;;;;;;;;;;;;5114176;28;19928;-68
2023/08/07 15:20:40;;;;;;;;;;;;;;;;;;5105121;28;20283;-68
2023/08/07 15:23:07;;;;;;;;;;;;;;;;;;5113527;28;19977;-68
2023/08/07 15:25:34;;;;;;;;;;;;;;;;;;5113590;28;19924;-68
2023/08/07 15:28:02;;;;;;;;;;;;;;;;;;5111149;28;19931;-68
2023/08/07 15:30:30;;;;;;;;;;;;;;;;;;5111877;27;19931;-69
2023/08/07 15:32:57;;;;;;;;;;;;;;;;;;5111732;27;19923;-69
2023/08/07 15:35:25;;;;;;;;;;;;;;;;;;5114541;28;19992;-69
2023/08/07 15:37:52;;;;;;;;;;;;;;;;;;5115080;28;19927;-69
2023/08/07 15:40:19;;;;;;;;;;;;;;;;;;5111955;28;20340;-63
2023/08/07 15:42:47;;;;;;;;;;;;;;;;;;5104674;28;19927;-64
2023/08/07 15:45:14;;;;;;;;;;;;;;;;;;5101720;28;19924;-64
2023/08/07 15:47:41;;;;;;;;;;;;;;;;;;5110004;28;20366;-64
2023/08/07 15:50:08;;;;;;;;;;;;;;;;;;5113197;28;19928;-64
2023/08/07 15:52:36;;;;;;;;;;;;;;;;;;5115077;28;20263;-65
2023/08/07 15:55:03;;;;;;;;;;;;;;;;;;5113361;28;19924;-64
2023/08/07 15:57:30;;;;;;;;;;;;;;;;;;5112949;28;19923;-64
2023/08/07 15:59:57;;;;;;;;;;;;;;;;;;5111313;28;19934;-64
2023/08/07 16:02:24;;;;;;;;;;;;;;;;;;5108164;28;19927;-64
2023/08/07 16:04:51;;;;;;;;;;;;;;;;;;5106864;28;20058;-63
2023/08/07 16:07:18;;;;;;;;;;;;;;;;;;5113905;28;19942;-64
2023/08/07 16:09:45;;;;;;;;;;;;;;;;;;5110114;28;19923;-64
2023/08/07 16:12:12;;;;;;;;;;;;;;;;;;5112358;28;19981;-64
2023/08/07 16:14:39;;;;;;;;;;;;;;;;;;5113599;27;19969;-64
2023/08/07 16:17:06;;;;;;;;;;;;;;;;;;5109606;28;19955;-64
2023/08/07 16:19:33;;;;;;;;;;;;;;;;;;5112737;28;19924;-63
2023/08/07 16:22:03;;;;;;;;;;;;;;;;;;5113025;28;20322;-64
2023/08/07 16:24:30;;;;;;;;;;;;;;;;;;5114147;28;19928;-64
2023/08/07 16:26:57;;;;;;;;;;;;;;;;;;5112277;28;19927;-64
2023/08/07 16:29:24;;;;;;;;;;;;;;;;;;5113525;28;19924;-64
2023/08/07 16:31:51;;;;;;;;;;;;;;;;;;5113011;28;20340;-64
2023/08/07 16:34:18;;;;;;;;;;;;;;;;;;5102984;28;19931;-64
2023/08/07 16:36:45;;;;;;;;;;;;;;;;;;5109501;28;19927;-64
2023/08/07 16:39:12;;;;;;;;;;;;;;;;;;5114135;28;20001;-64
2023/08/07 16:41:44;;;;;;;;;;;;;;;;;;5113345;28;19923;-64
2023/08/07 16:44:11;;;;;;;;;;;;;;;;;;5104943;27;19939;-64